Terminal Aerodrome Forecast
Issued by NWS Tampa Bay Area, FL

Home | Current Version | Previous Version | Text Only | Print | Product List | Glossary On
Versions: 1 2 3 4 5 6 7 8 9 10 11 12 13 14
000
FTUS42 KTBW 261700
TAFFMY
TAF
KFMY 261740Z 2618/2718 07008KT P6SM BKN020
     FM270200 05004KT P6SM SCT020 BKN030
     FM270700 05004KT P6SM SCT015 BKN035
     FM271300 05006KT P6SM FEW025 SCT250=

USA.gov is the U.S. government's official web portal to all federal, state and local government web resources and services.